createdAt,value
2022-11-16T00:00:38.956Z,99.30
2022-11-16T00:01:38.922Z,77.70
2022-11-16T00:02:38.951Z,79.10
2022-11-16T00:03:38.803Z,74.60
2022-11-16T00:04:38.874Z,85.50
2022-11-16T00:05:38.784Z,70.50
2022-11-16T00:06:38.799Z,81.50
2022-11-16T00:07:38.828Z,79.30
2022-11-16T00:08:38.808Z,72.50
2022-11-16T00:09:38.727Z,83.30
2022-11-16T00:10:38.824Z,80.90
2022-11-16T00:11:38.696Z,79.50
2022-11-16T00:12:38.746Z,79.30
2022-11-16T00:13:38.704Z,63.50
2022-11-16T00:14:38.744Z,73.20
2022-11-16T00:15:38.664Z,74.50
2022-11-16T00:16:38.665Z,71.60
2022-11-16T00:17:38.615Z,67.70
2022-11-16T00:18:38.677Z,72.70
2022-11-16T00:19:38.630Z,74.40
2022-11-16T00:20:38.684Z,72.10
2022-11-16T00:21:38.563Z,63.20
2022-11-16T00:22:38.606Z,76.10
2022-11-16T00:23:38.535Z,70.80
2022-11-16T00:24:38.615Z,69.90
2022-11-16T00:25:38.540Z,68.10
2022-11-16T00:26:38.535Z,68.80
2022-11-16T00:27:38.474Z,64.10
2022-11-16T00:28:38.551Z,67.10
2022-11-16T00:29:38.453Z,63.80
2022-11-16T00:30:38.453Z,73.60
2022-11-16T00:31:38.455Z,68.10
2022-11-16T00:32:38.463Z,67.90
2022-11-16T00:33:38.393Z,69.80
2022-11-16T00:34:38.486Z,71.90
2022-11-16T00:35:38.362Z,72.50
2022-11-16T00:36:39.426Z,71.10
2022-11-16T00:37:38.374Z,73.00
2022-11-16T00:38:38.421Z,61.10
2022-11-16T00:39:38.314Z,64.70
2022-11-16T00:40:38.321Z,69.30
2022-11-16T00:41:38.294Z,72.60
2022-11-16T00:42:38.333Z,68.90
2022-11-16T00:43:38.292Z,62.80
2022-11-16T00:44:38.350Z,74.80
2022-11-16T00:45:38.234Z,74.60
2022-11-16T00:46:38.263Z,68.10
2022-11-16T00:47:38.203Z,72.30
2022-11-16T00:48:38.273Z,75.30
2022-11-16T00:49:38.194Z,63.50
2022-11-16T00:50:38.194Z,70.20
2022-11-16T00:51:38.143Z,81.20
2022-11-16T00:52:38.202Z,72.50
2022-11-16T00:53:38.120Z,72.50
2022-11-16T00:54:38.215Z,73.60
2022-11-16T00:55:38.123Z,75.00
2022-11-16T00:56:38.136Z,69.80
2022-11-16T00:57:38.062Z,77.60
2022-11-16T00:58:38.143Z,70.00
2022-11-16T00:59:38.042Z,65.40
2022-11-16T01:00:38.053Z,75.90
2022-11-16T01:01:38.134Z,76.60
2022-11-16T01:02:38.076Z,83.80
2022-11-16T01:03:37.991Z,66.30
2022-11-16T01:04:38.085Z,76.10
2022-11-16T01:05:37.961Z,78.20
2022-11-16T01:06:38.002Z,76.90
2022-11-16T01:07:38.062Z,75.50
2022-11-16T01:08:38.933Z,78.00
2022-11-16T01:09:37.903Z,80.60
2022-11-16T01:10:37.923Z,69.80
2022-11-16T01:11:37.873Z,70.80
2022-11-16T01:12:37.934Z,66.00
2022-11-16T01:13:37.883Z,70.70
2022-11-16T01:14:37.852Z,70.50
2022-11-16T01:15:37.824Z,73.10
2022-11-16T01:16:38.893Z,74.50
2022-11-16T01:17:37.792Z,66.80
2022-11-16T01:18:37.884Z,74.20
2022-11-16T01:19:37.791Z,69.60
2022-11-16T01:20:37.792Z,80.70
2022-11-16T01:21:37.741Z,77.60
2022-11-16T01:22:37.812Z,77.90
2022-11-16T01:23:37.712Z,68.30
2022-11-16T01:24:37.723Z,62.00
2022-11-16T01:25:37.711Z,69.50
2022-11-16T01:26:37.731Z,68.30
2022-11-16T01:27:37.651Z,80.00
2022-11-16T01:28:37.753Z,68.30
2022-11-16T01:29:37.631Z,65.40
2022-11-16T01:30:37.663Z,63.50
2022-11-16T01:31:37.622Z,81.00
2022-11-16T01:32:37.673Z,65.80
2022-11-16T01:33:37.584Z,74.90
2022-11-16T01:34:37.591Z,62.80
2022-11-16T01:35:37.551Z,66.50
2022-11-16T01:36:58.649Z,75.40
2022-11-16T01:37:37.522Z,65.80
2022-11-16T01:38:37.611Z,72.20
2022-11-16T01:39:37.492Z,65.50
2022-11-16T01:40:37.540Z,64.50
2022-11-16T01:41:37.470Z,79.10
2022-11-16T01:42:37.491Z,74.40
2022-11-16T01:43:37.441Z,75.10
2022-11-16T01:44:37.450Z,79.90
2022-11-16T01:45:37.412Z,87.10
2022-11-16T01:46:37.472Z,78.70
2022-11-16T01:47:37.391Z,82.60
2022-11-16T01:48:37.794Z,65.70
2022-11-16T01:49:37.363Z,82.00
2022-11-16T01:50:37.391Z,81.50
2022-11-16T01:51:37.340Z,67.60
2022-11-16T01:52:38.432Z,91.30
2022-11-16T01:53:37.310Z,82.00
2022-11-16T01:54:45.061Z,78.20
2022-11-16T01:55:37.281Z,75.50
2022-11-16T01:56:37.345Z,77.70
2022-11-16T01:57:37.260Z,66.20
2022-11-16T01:58:37.350Z,79.30
2022-11-16T01:59:37.264Z,69.60
2022-11-16T02:00:37.270Z,85.20
2022-11-16T02:01:37.236Z,89.40
2022-11-16T02:02:37.282Z,84.00
2022-11-16T02:03:37.182Z,74.70
2022-11-16T02:04:37.190Z,93.70
2022-11-16T02:05:37.180Z,70.50
2022-11-16T02:06:37.210Z,75.20
2022-11-16T02:07:37.186Z,84.20
2022-11-16T02:08:37.229Z,81.00
2022-11-16T02:09:37.089Z,71.40
2022-11-16T02:10:37.129Z,78.90
2022-11-16T02:11:37.100Z,70.80
2022-11-16T02:12:38.075Z,91.70
2022-11-16T02:13:37.039Z,76.10
2022-11-16T02:14:37.061Z,77.00
2022-11-16T02:15:37.011Z,72.70
2022-11-16T02:16:37.073Z,90.50
2022-11-16T02:17:37.009Z,76.40
2022-11-16T02:18:37.073Z,86.40
2022-11-16T02:19:36.960Z,73.40
2022-11-16T02:20:36.999Z,82.10
2022-11-16T02:21:36.930Z,85.70
2022-11-16T02:22:37.018Z,79.70
2022-11-16T02:23:36.939Z,90.80
2022-11-16T02:24:36.931Z,77.60
2022-11-16T02:25:36.879Z,87.40
2022-11-16T02:26:36.938Z,86.50
2022-11-16T02:27:36.864Z,91.40
2022-11-16T02:28:37.052Z,77.10
2022-11-16T02:29:36.857Z,88.00
2022-11-16T02:30:36.870Z,73.80
2022-11-16T02:31:36.798Z,71.00
2022-11-16T02:32:36.880Z,91.20
2022-11-16T02:33:36.777Z,101.40
2022-11-16T02:34:36.798Z,82.20
2022-11-16T02:35:36.777Z,81.30
2022-11-16T02:36:36.809Z,73.70
2022-11-16T02:37:36.728Z,100.50
2022-11-16T02:38:36.943Z,71.50
2022-11-16T02:39:36.698Z,89.30
2022-11-16T02:40:57.778Z,75.10
2022-11-16T02:41:36.664Z,97.70
2022-11-16T02:42:36.658Z,85.30
2022-11-16T02:43:36.660Z,85.40
2022-11-16T02:44:36.629Z,84.00
2022-11-16T02:45:36.667Z,101.90
2022-11-16T02:46:36.629Z,99.90
2022-11-16T02:47:37.614Z,87.40
2022-11-16T02:48:36.802Z,92.60
2022-11-16T02:49:36.598Z,102.40
2022-11-16T02:50:36.546Z,96.20
2022-11-16T02:51:36.617Z,88.90
2022-11-16T02:52:36.548Z,79.50
2022-11-16T02:53:36.526Z,92.40
2022-11-16T02:54:36.497Z,115.30
2022-11-16T02:55:36.537Z,91.90
2022-11-16T02:56:36.467Z,95.30
2022-11-16T02:57:36.555Z,97.90
2022-11-16T02:58:36.650Z,103.20
2022-11-16T02:59:36.466Z,92.60
2022-11-16T03:00:36.466Z,88.70
2022-11-16T03:01:36.476Z,118.50
2022-11-16T03:02:36.388Z,112.40
2022-11-16T03:03:36.400Z,86.30
2022-11-16T03:04:36.387Z,97.50
2022-11-16T03:05:36.408Z,114.90
2022-11-16T03:06:36.337Z,127.50
2022-11-16T03:07:36.416Z,86.00
2022-11-16T03:08:36.574Z,92.40
2022-11-16T03:09:36.326Z,78.90
2022-11-16T03:10:36.296Z,91.10
2022-11-16T03:11:36.349Z,93.40
2022-11-16T03:12:36.262Z,104.20
2022-11-16T03:13:36.257Z,112.00
2022-11-16T03:14:36.225Z,77.90
2022-11-16T03:15:36.278Z,112.10
2022-11-16T03:16:36.225Z,103.60
2022-11-16T03:17:36.285Z,81.90
2022-11-16T03:18:36.584Z,92.10
2022-11-16T03:19:36.197Z,83.20
2022-11-16T03:20:36.147Z,103.50
2022-11-16T03:21:38.207Z,83.30
2022-11-16T03:22:36.146Z,136.50
2022-11-16T03:23:36.130Z,87.50
2022-11-16T03:24:36.095Z,107.00
2022-11-16T03:25:36.137Z,102.10
2022-11-16T03:26:36.065Z,125.30
2022-11-16T03:27:36.159Z,75.00
2022-11-16T03:28:36.261Z,77.60
2022-11-16T03:29:36.065Z,87.30
2022-11-16T03:30:36.013Z,82.90
2022-11-16T03:31:36.085Z,98.20
2022-11-16T03:32:35.986Z,117.50
2022-11-16T03:33:35.996Z,93.40
2022-11-16T03:34:35.987Z,122.00
2022-11-16T03:35:36.005Z,82.30
2022-11-16T03:36:35.932Z,88.10
2022-11-16T03:37:36.026Z,87.20
2022-11-16T03:38:36.171Z,91.70
2022-11-16T03:39:35.934Z,106.30
2022-11-16T03:40:35.908Z,62.80
2022-11-16T03:41:35.959Z,105.30
2022-11-16T03:42:35.845Z,99.30
2022-11-16T03:43:35.865Z,107.30
2022-11-16T03:44:35.824Z,95.80
2022-11-16T03:45:35.875Z,103.40
2022-11-16T03:46:35.825Z,89.50
2022-11-16T03:47:35.894Z,91.20
2022-11-16T03:48:36.240Z,97.00
2022-11-16T03:49:35.806Z,96.60
2022-11-16T03:50:35.744Z,87.70
2022-11-16T03:51:35.814Z,95.80
2022-11-16T03:52:35.735Z,91.00
2022-11-16T03:53:35.723Z,103.40
2022-11-16T03:54:35.694Z,102.00
2022-11-16T03:55:35.743Z,96.00
2022-11-16T03:56:35.665Z,86.80
2022-11-16T03:57:35.655Z,102.80
2022-11-16T03:58:36.058Z,79.80
2022-11-16T03:59:35.674Z,90.00
2022-11-16T04:00:35.646Z,115.00
2022-11-16T04:01:39.211Z,82.50
2022-11-16T04:02:36.592Z,104.30
2022-11-16T04:03:35.595Z,83.50
2022-11-16T04:04:35.591Z,88.50
2022-11-16T04:05:35.610Z,86.10
2022-11-16T04:06:35.531Z,81.50
2022-11-16T04:07:35.658Z,100.50
2022-11-16T04:08:35.754Z,102.50
2022-11-16T04:09:35.533Z,78.30
2022-11-16T04:10:35.533Z,100.60
2022-11-16T04:11:35.559Z,111.90
2022-11-16T04:12:35.453Z,95.00
2022-11-16T04:13:35.462Z,88.60
2022-11-16T04:14:35.422Z,105.30
2022-11-16T04:15:35.473Z,76.00
2022-11-16T04:16:35.433Z,107.20
2022-11-16T04:17:35.493Z,94.60
2022-11-16T04:18:36.010Z,95.80
2022-11-16T04:19:35.403Z,84.00
2022-11-16T04:20:35.344Z,88.00
2022-11-16T04:21:35.420Z,73.70
2022-11-16T04:22:35.351Z,94.60
2022-11-16T04:23:35.352Z,100.50
2022-11-16T04:24:35.293Z,96.60
2022-11-16T04:25:35.365Z,106.00
2022-11-16T04:26:35.264Z,85.60
2022-11-16T04:27:36.283Z,86.20
2022-11-16T04:28:35.525Z,85.50
2022-11-16T04:29:35.273Z,94.00
2022-11-16T04:30:35.212Z,77.40
2022-11-16T04:31:35.302Z,74.40
2022-11-16T04:32:35.183Z,73.50
2022-11-16T04:33:35.201Z,84.20
2022-11-16T04:34:35.187Z,89.80
2022-11-16T04:35:35.213Z,80.50
2022-11-16T04:36:35.132Z,83.30
2022-11-16T04:37:35.234Z,80.30
2022-11-16T04:38:35.526Z,79.20
2022-11-16T04:39:35.143Z,78.90
2022-11-16T04:40:35.092Z,92.50
2022-11-16T04:41:35.159Z,79.00
2022-11-16T04:42:35.052Z,85.80
2022-11-16T04:43:35.073Z,78.90
2022-11-16T04:44:35.021Z,76.50
2022-11-16T04:45:35.082Z,84.00
2022-11-16T04:46:35.021Z,87.90
2022-11-16T04:47:35.101Z,82.10
2022-11-16T04:48:35.364Z,84.40
2022-11-16T04:49:35.013Z,91.50
2022-11-16T04:50:34.951Z,87.30
2022-11-16T04:51:35.023Z,86.10
2022-11-16T04:52:34.958Z,102.30
2022-11-16T04:53:34.940Z,100.20
2022-11-16T04:54:34.892Z,85.50
2022-11-16T04:55:34.955Z,88.40
2022-11-16T04:56:34.870Z,68.50
2022-11-16T04:57:34.963Z,93.70
2022-11-16T04:58:35.264Z,81.60
2022-11-16T04:59:34.876Z,91.30
2022-11-16T05:00:34.812Z,79.90
2022-11-16T05:01:34.937Z,93.10
2022-11-16T05:02:34.781Z,84.50
2022-11-16T05:03:34.802Z,81.00
2022-11-16T05:04:34.794Z,106.30
2022-11-16T05:05:34.823Z,93.00
2022-11-16T05:06:34.732Z,77.50
2022-11-16T05:07:34.950Z,82.80
2022-11-16T05:08:35.093Z,103.30
2022-11-16T05:09:34.742Z,86.90
2022-11-16T05:10:34.723Z,80.40
2022-11-16T05:11:34.761Z,83.90
2022-11-16T05:12:34.660Z,87.30
2022-11-16T05:13:34.681Z,77.60
2022-11-16T05:14:34.631Z,78.10
2022-11-16T05:15:35.064Z,84.50
2022-11-16T05:16:34.623Z,79.50
2022-11-16T05:17:34.702Z,92.70
2022-11-16T05:18:34.951Z,73.60
2022-11-16T05:19:34.619Z,82.30
2022-11-16T05:20:34.551Z,83.30
2022-11-16T05:21:34.639Z,85.50
2022-11-16T05:22:34.562Z,86.50
2022-11-16T05:23:34.542Z,88.00
2022-11-16T05:24:34.510Z,84.50
2022-11-16T05:25:37.057Z,87.60
2022-11-16T05:26:34.482Z,85.60
2022-11-16T05:27:34.576Z,71.90
2022-11-16T05:28:34.813Z,78.90
2022-11-16T05:29:34.482Z,75.40
2022-11-16T05:30:34.438Z,84.50
2022-11-16T05:31:40.125Z,75.00
2022-11-16T05:32:35.391Z,105.70
2022-11-16T05:33:34.415Z,86.30
2022-11-16T05:34:34.392Z,80.20
2022-11-16T05:35:34.428Z,82.50
2022-11-16T05:36:34.340Z,72.50
2022-11-16T05:37:34.444Z,85.50
2022-11-16T05:38:34.610Z,83.40
2022-11-16T05:39:35.372Z,73.30
2022-11-16T05:40:34.315Z,85.50
2022-11-16T05:41:34.360Z,76.80
2022-11-16T05:42:34.271Z,77.70
2022-11-16T05:43:34.283Z,84.10
2022-11-16T05:44:34.231Z,81.90
2022-11-16T05:45:34.295Z,85.60
2022-11-16T05:46:34.230Z,84.30
2022-11-16T05:47:34.311Z,79.20
2022-11-16T05:48:34.449Z,79.10
2022-11-16T05:49:34.227Z,74.40
2022-11-16T05:50:37.342Z,74.10
2022-11-16T05:51:35.171Z,80.20
2022-11-16T05:52:34.240Z,69.40
2022-11-16T05:53:34.118Z,71.40
2022-11-16T05:54:34.151Z,78.10
2022-11-16T05:55:34.093Z,69.70
2022-11-16T05:56:34.191Z,69.70
2022-11-16T05:57:34.091Z,78.60
2022-11-16T05:58:34.359Z,78.30
2022-11-16T05:59:34.046Z,81.80
2022-11-16T06:00:34.103Z,81.70
2022-11-16T06:01:34.010Z,70.00
2022-11-16T06:02:36.121Z,73.40
2022-11-16T06:03:34.104Z,69.90
2022-11-16T06:04:34.020Z,72.00
2022-11-16T06:05:38.981Z,74.80
2022-11-16T06:06:34.949Z,70.00
2022-11-16T06:07:34.150Z,63.60
2022-11-16T06:08:34.291Z,62.70
2022-11-16T06:09:34.010Z,61.80
2022-11-16T06:10:33.890Z,64.40
2022-11-16T06:11:35.966Z,66.20
2022-11-16T06:12:33.872Z,64.90
2022-11-16T06:13:34.107Z,65.10
2022-11-16T06:14:33.853Z,66.40
2022-11-16T06:15:33.954Z,71.20
2022-11-16T06:16:33.822Z,64.40
2022-11-16T06:17:34.839Z,60.20
2022-11-16T06:18:34.038Z,63.60
2022-11-16T06:19:33.820Z,72.30
2022-11-16T06:20:33.791Z,67.80
2022-11-16T06:21:33.898Z,79.50
2022-11-16T06:22:33.739Z,60.50
2022-11-16T06:23:33.751Z,71.60
2022-11-16T06:24:33.709Z,68.00
2022-11-16T06:25:35.859Z,62.80
2022-11-16T06:26:33.681Z,70.70
2022-11-16T06:27:33.729Z,58.70
2022-11-16T06:28:34.053Z,62.80
2022-11-16T06:29:33.690Z,54.70
2022-11-16T06:30:33.631Z,59.50
2022-11-16T06:31:33.714Z,64.10
2022-11-16T06:32:33.609Z,59.30
2022-11-16T06:33:34.063Z,60.60
2022-11-16T06:34:33.580Z,56.30
2022-11-16T06:35:34.663Z,59.00
2022-11-16T06:36:33.551Z,64.50
2022-11-16T06:37:33.651Z,52.00
2022-11-16T06:38:33.955Z,58.30
2022-11-16T06:39:33.609Z,58.90
2022-11-16T06:40:33.498Z,66.80
2022-11-16T06:41:35.716Z,60.30
2022-11-16T06:42:34.478Z,57.00
2022-11-16T06:43:33.489Z,61.60
2022-11-16T06:44:33.438Z,58.70
2022-11-16T06:45:33.549Z,54.40
2022-11-16T06:46:33.510Z,61.20
2022-11-16T06:47:33.519Z,61.60
2022-11-16T06:48:33.864Z,55.40
2022-11-16T06:49:33.430Z,49.30
2022-11-16T06:50:33.371Z,52.50
2022-11-16T06:51:34.416Z,59.60
2022-11-16T06:52:33.340Z,53.30
2022-11-16T06:53:34.380Z,59.60
2022-11-16T06:54:33.311Z,57.60
2022-11-16T06:55:33.370Z,56.80
2022-11-16T06:56:33.289Z,59.40
2022-11-16T06:57:33.331Z,58.40
2022-11-16T06:58:33.732Z,59.60
2022-11-16T06:59:33.305Z,60.90
2022-11-16T07:00:33.260Z,53.80
2022-11-16T07:01:33.347Z,54.70
2022-11-16T07:02:33.208Z,57.80
2022-11-16T07:03:33.268Z,57.20
2022-11-16T07:04:33.188Z,58.10
2022-11-16T07:05:33.259Z,60.10
2022-11-16T07:06:33.158Z,57.80
2022-11-16T07:07:33.338Z,53.40
2022-11-16T07:08:33.517Z,59.80
2022-11-16T07:09:33.215Z,50.10
2022-11-16T07:10:33.097Z,50.90
2022-11-16T07:11:54.176Z,52.00
2022-11-16T07:12:33.078Z,53.40
2022-11-16T07:13:33.088Z,53.00
2022-11-16T07:14:33.057Z,51.80
2022-11-16T07:15:33.161Z,47.40
2022-11-16T07:16:33.027Z,53.70
2022-11-16T07:17:33.117Z,54.70
2022-11-16T07:18:33.258Z,56.00
2022-11-16T07:19:33.027Z,51.40
2022-11-16T07:20:32.968Z,53.20
2022-11-16T07:21:33.098Z,54.60
2022-11-16T07:22:32.949Z,57.50
2022-11-16T07:23:32.961Z,56.00
2022-11-16T07:24:32.917Z,55.60
2022-11-16T07:25:32.980Z,59.40
2022-11-16T07:26:32.897Z,57.60
2022-11-16T07:27:32.946Z,58.30
2022-11-16T07:28:33.430Z,56.20
2022-11-16T07:29:32.897Z,57.50
2022-11-16T07:30:32.847Z,54.50
2022-11-16T07:31:34.390Z,64.90
2022-11-16T07:32:32.840Z,60.90
2022-11-16T07:33:32.876Z,50.50
2022-11-16T07:34:32.856Z,55.10
2022-11-16T07:35:32.839Z,57.20
2022-11-16T07:36:32.761Z,55.90
2022-11-16T07:37:32.863Z,57.50
2022-11-16T07:38:33.253Z,60.40
2022-11-16T07:39:33.177Z,51.90
2022-11-16T07:40:32.719Z,54.40
2022-11-16T07:41:33.093Z,55.10
2022-11-16T07:42:32.709Z,50.80
2022-11-16T07:43:32.697Z,46.10
2022-11-16T07:44:32.646Z,49.90
2022-11-16T07:45:33.795Z,50.10
2022-11-16T07:46:48.796Z,51.00
2022-11-16T07:47:33.617Z,52.20
2022-11-16T07:48:33.070Z,56.30
2022-11-16T07:49:32.599Z,49.70
2022-11-16T07:50:33.671Z,47.30
2022-11-16T07:51:32.756Z,52.20
2022-11-16T07:52:32.661Z,54.70
2022-11-16T07:53:32.767Z,49.00
2022-11-16T07:54:32.577Z,50.20
2022-11-16T07:55:32.515Z,53.30
2022-11-16T07:56:32.587Z,49.90
2022-11-16T07:57:32.513Z,57.20
2022-11-16T07:58:34.024Z,48.00
2022-11-16T07:59:33.407Z,52.80
2022-11-16T08:00:32.516Z,47.30
2022-11-16T08:01:32.472Z,47.10
2022-11-16T08:02:34.527Z,50.20
2022-11-16T08:03:32.425Z,51.80
2022-11-16T08:04:32.435Z,52.00
2022-11-16T08:05:32.383Z,50.20
2022-11-16T08:06:32.445Z,47.60
2022-11-16T08:07:32.411Z,46.20
2022-11-16T08:08:32.638Z,46.90
2022-11-16T08:09:32.356Z,52.80
2022-11-16T08:10:33.432Z,48.20
2022-11-16T08:11:32.304Z,46.00
2022-11-16T08:12:32.403Z,48.30
2022-11-16T08:13:32.285Z,49.60
2022-11-16T08:14:32.318Z,52.80
2022-11-16T08:15:32.278Z,75.60
2022-11-16T08:16:32.325Z,58.20
2022-11-16T08:17:32.226Z,61.90
2022-11-16T08:18:33.523Z,52.90
2022-11-16T08:19:32.195Z,52.70
2022-11-16T08:20:32.249Z,45.30
2022-11-16T08:21:32.203Z,50.80
2022-11-16T08:22:33.186Z,46.70
2022-11-16T08:23:32.146Z,43.70
2022-11-16T08:24:32.175Z,46.40
2022-11-16T08:25:32.143Z,44.20
2022-11-16T08:26:32.185Z,43.10
2022-11-16T08:27:32.117Z,47.80
2022-11-16T08:28:32.496Z,43.30
2022-11-16T08:29:33.026Z,43.50
2022-11-16T08:30:32.154Z,43.60
2022-11-16T08:31:32.037Z,47.90
2022-11-16T08:32:32.125Z,44.50
2022-11-16T08:33:32.042Z,42.30
2022-11-16T08:34:32.046Z,45.40
2022-11-16T08:35:31.993Z,43.30
2022-11-16T08:36:32.054Z,42.00
2022-11-16T08:37:31.963Z,42.80
2022-11-16T08:38:32.337Z,38.90
2022-11-16T08:39:31.963Z,45.60
2022-11-16T08:40:31.983Z,39.80
2022-11-16T08:41:31.915Z,37.80
2022-11-16T08:42:32.005Z,42.80
2022-11-16T08:43:31.884Z,41.80
2022-11-16T08:44:31.917Z,45.40
2022-11-16T08:45:31.892Z,37.70
2022-11-16T08:46:31.925Z,43.20
2022-11-16T08:47:31.837Z,42.00
2022-11-16T08:48:32.262Z,41.60
2022-11-16T08:49:31.810Z,41.60
2022-11-16T08:50:44.107Z,39.90
2022-11-16T08:51:32.833Z,40.50
2022-11-16T08:52:31.773Z,35.60
2022-11-16T08:53:32.798Z,40.80
2022-11-16T08:54:31.742Z,38.30
2022-11-16T08:55:31.793Z,38.60
2022-11-16T08:56:31.711Z,36.50
2022-11-16T08:57:31.743Z,38.30
2022-11-16T08:58:32.081Z,35.60
2022-11-16T08:59:31.721Z,38.40
2022-11-16T09:00:31.653Z,36.10
2022-11-16T09:01:31.771Z,36.80
2022-11-16T09:02:31.624Z,33.40
2022-11-16T09:03:31.693Z,33.40
2022-11-16T09:04:36.708Z,38.50
2022-11-16T09:05:32.583Z,38.20
2022-11-16T09:06:31.663Z,35.80
2022-11-16T09:07:31.588Z,36.10
2022-11-16T09:08:31.846Z,34.80
2022-11-16T09:09:31.563Z,36.60
2022-11-16T09:10:31.584Z,35.20
2022-11-16T09:11:31.526Z,32.60
2022-11-16T09:12:31.603Z,38.40
2022-11-16T09:13:31.573Z,38.20
2022-11-16T09:14:32.555Z,37.70
2022-11-16T09:15:31.483Z,39.90
2022-11-16T09:16:32.554Z,38.60
2022-11-16T09:17:31.424Z,43.10
2022-11-16T09:18:31.816Z,43.00
2022-11-16T09:19:31.391Z,35.40
2022-11-16T09:20:31.458Z,35.90
2022-11-16T09:21:31.403Z,40.60
2022-11-16T09:22:31.473Z,34.60
2022-11-16T09:23:31.342Z,39.20
2022-11-16T09:24:32.410Z,39.80
2022-11-16T09:25:31.313Z,37.00
2022-11-16T09:26:31.392Z,43.80
2022-11-16T09:27:31.344Z,38.80
2022-11-16T09:28:32.747Z,39.80
2022-11-16T09:29:31.252Z,41.80
2022-11-16T09:30:31.322Z,44.00
2022-11-16T09:31:31.253Z,47.20
2022-11-16T09:32:32.261Z,45.60
2022-11-16T09:33:31.435Z,43.60
2022-11-16T09:34:31.251Z,40.90
2022-11-16T09:35:31.161Z,41.40
2022-11-16T09:36:31.264Z,40.70
2022-11-16T09:37:31.265Z,43.10
2022-11-16T09:38:46.831Z,40.20
2022-11-16T09:39:33.179Z,46.50
2022-11-16T09:40:31.110Z,42.60
2022-11-16T09:41:31.201Z,44.50
2022-11-16T09:42:31.080Z,44.90
2022-11-16T09:43:31.468Z,38.80
2022-11-16T09:44:31.056Z,46.30
2022-11-16T09:45:31.261Z,42.90
2022-11-16T09:46:31.024Z,45.50
2022-11-16T09:47:31.035Z,42.00
2022-11-16T09:48:31.000Z,41.20
2022-11-16T09:49:31.053Z,45.40
2022-11-16T09:50:30.969Z,48.10
2022-11-16T09:51:31.022Z,47.90
2022-11-16T09:52:30.940Z,44.40
2022-11-16T09:53:30.985Z,46.40
2022-11-16T09:54:30.920Z,43.00
2022-11-16T09:55:31.920Z,47.00
2022-11-16T09:56:30.890Z,45.10
2022-11-16T09:57:31.988Z,44.40
2022-11-16T09:58:31.739Z,48.00
2022-11-16T09:59:30.925Z,44.40
2022-11-16T10:00:30.893Z,47.50
2022-11-16T10:01:30.933Z,103.10
2022-11-16T10:02:30.800Z,62.10
2022-11-16T10:03:31.069Z,55.70
2022-11-16T10:04:30.781Z,46.80
2022-11-16T10:05:30.862Z,196.90
2022-11-16T10:06:30.748Z,98.90
2022-11-16T10:07:30.870Z,56.80
2022-11-16T10:08:30.816Z,50.90
2022-11-16T10:09:30.841Z,48.90
2022-11-16T10:10:30.697Z,54.30
2022-11-16T10:11:30.699Z,49.40
2022-11-16T10:12:30.669Z,53.40
2022-11-16T10:13:30.868Z,63.90
2022-11-16T10:14:30.650Z,59.50
2022-11-16T10:15:30.680Z,58.00
2022-11-16T10:16:30.612Z,51.40
2022-11-16T10:17:30.640Z,52.30
2022-11-16T10:18:30.592Z,52.80
2022-11-16T10:19:31.688Z,47.50
2022-11-16T10:20:31.184Z,53.70
2022-11-16T10:21:30.619Z,54.10
2022-11-16T10:22:30.529Z,53.10
2022-11-16T10:23:30.737Z,54.70
2022-11-16T10:24:30.506Z,50.40
2022-11-16T10:25:30.597Z,46.60
2022-11-16T10:26:30.472Z,49.20
2022-11-16T10:27:30.558Z,51.60
2022-11-16T10:28:30.439Z,52.70
2022-11-16T10:29:31.549Z,47.90
2022-11-16T10:30:30.410Z,47.80
2022-11-16T10:31:30.432Z,50.80
2022-11-16T10:32:30.389Z,48.30
2022-11-16T10:33:32.719Z,49.40
2022-11-16T10:34:30.369Z,49.10
2022-11-16T10:35:30.459Z,46.50
2022-11-16T10:36:30.342Z,49.80
2022-11-16T10:37:31.410Z,51.50
2022-11-16T10:38:30.310Z,46.10
2022-11-16T10:39:31.360Z,51.60
2022-11-16T10:40:30.277Z,46.50
2022-11-16T10:41:30.299Z,45.60
2022-11-16T10:42:30.250Z,49.60
2022-11-16T10:43:30.384Z,51.60
2022-11-16T10:44:30.222Z,48.10
2022-11-16T10:45:30.930Z,43.80
2022-11-16T10:46:30.210Z,45.10
2022-11-16T10:47:33.768Z,45.60
2022-11-16T10:48:30.167Z,45.20
2022-11-16T10:49:30.263Z,41.40
2022-11-16T10:50:30.141Z,45.40
2022-11-16T10:51:30.229Z,45.90
2022-11-16T10:52:30.099Z,51.70
2022-11-16T10:53:30.180Z,40.70
2022-11-16T10:54:30.078Z,45.50
2022-11-16T10:55:30.103Z,51.50
2022-11-16T10:56:30.108Z,47.90
2022-11-16T10:57:30.158Z,47.30
2022-11-16T10:58:30.043Z,39.40
2022-11-16T10:59:30.128Z,41.30
2022-11-16T11:00:30.043Z,38.50
2022-11-16T11:01:30.041Z,42.40
2022-11-16T11:02:29.979Z,40.30
2022-11-16T11:03:31.160Z,44.20
2022-11-16T11:04:29.963Z,35.80
2022-11-16T11:05:30.018Z,41.70
2022-11-16T11:06:29.930Z,37.30
2022-11-16T11:07:30.025Z,36.80
2022-11-16T11:08:29.930Z,40.40
2022-11-16T11:09:29.959Z,40.50
2022-11-16T11:10:29.880Z,45.00
2022-11-16T11:11:29.858Z,39.70
2022-11-16T11:12:29.837Z,48.10
2022-11-16T11:13:29.922Z,37.00
2022-11-16T11:14:29.817Z,37.10
2022-11-16T11:15:29.888Z,38.10
2022-11-16T11:16:29.789Z,36.90
2022-11-16T11:17:29.848Z,35.10
2022-11-16T11:18:29.768Z,33.10
2022-11-16T11:19:50.738Z,35.20
2022-11-16T11:20:29.729Z,35.30
2022-11-16T11:21:29.827Z,33.60
2022-11-16T11:22:29.711Z,31.70
2022-11-16T11:23:30.808Z,35.60
2022-11-16T11:24:43.761Z,30.40
2022-11-16T11:25:30.672Z,30.30
2022-11-16T11:26:35.827Z,31.30
2022-11-16T11:27:30.647Z,31.80
2022-11-16T11:28:29.719Z,32.20
2022-11-16T11:29:29.617Z,30.30
2022-11-16T11:30:29.645Z,30.90
2022-11-16T11:31:29.589Z,30.90
2022-11-16T11:32:29.653Z,31.60
2022-11-16T11:33:29.587Z,32.90
2022-11-16T11:34:29.558Z,29.60
2022-11-16T11:35:29.543Z,33.20
2022-11-16T11:36:29.578Z,30.70
2022-11-16T11:37:29.499Z,26.90
2022-11-16T11:38:30.508Z,32.30
2022-11-16T11:39:29.547Z,31.70
2022-11-16T11:40:30.529Z,35.50
2022-11-16T11:41:29.460Z,30.30
2022-11-16T11:42:29.528Z,30.70
2022-11-16T11:43:29.436Z,28.60
2022-11-16T11:44:29.440Z,29.30
2022-11-16T11:45:29.406Z,28.20
2022-11-16T11:46:56.060Z,26.20
2022-11-16T11:48:30.347Z,28.30
2022-11-16T11:49:33.585Z,29.60
2022-11-16T11:50:29.328Z,28.90
2022-11-16T11:51:31.683Z,25.20
2022-11-16T11:52:29.337Z,27.80
2022-11-16T11:53:31.561Z,23.10
2022-11-16T11:54:29.268Z,24.90
2022-11-16T11:55:29.306Z,26.10
2022-11-16T11:56:29.255Z,25.50
2022-11-16T11:57:29.365Z,30.20
2022-11-16T11:58:29.226Z,29.80
2022-11-16T11:59:29.337Z,28.70
2022-11-16T12:00:29.196Z,31.70
2022-11-16T12:01:29.190Z,29.90
2022-11-16T12:02:29.230Z,26.40
2022-11-16T12:03:30.967Z,25.30
2022-11-16T12:04:29.148Z,25.60
2022-11-16T12:05:29.165Z,27.00
2022-11-16T12:06:29.115Z,29.00
2022-11-16T12:07:29.242Z,25.20
2022-11-16T12:08:29.498Z,21.30
2022-11-16T12:09:29.116Z,21.60
2022-11-16T12:10:29.045Z,25.70
2022-11-16T12:11:29.055Z,24.40
2022-11-16T12:12:29.036Z,26.20
2022-11-16T12:13:29.035Z,24.00
2022-11-16T12:14:29.006Z,25.50
2022-11-16T12:15:29.108Z,24.20
2022-11-16T12:16:28.995Z,22.90
2022-11-16T12:17:29.057Z,26.50
2022-11-16T12:18:28.953Z,22.60
2022-11-16T12:19:28.965Z,25.60
2022-11-16T12:20:28.934Z,26.50
2022-11-16T12:21:30.055Z,24.40
2022-11-16T12:22:28.908Z,25.10
2022-11-16T12:23:49.987Z,23.30
2022-11-16T12:24:28.877Z,22.40
2022-11-16T12:25:30.996Z,21.80
2022-11-16T12:26:28.846Z,19.30
2022-11-16T12:27:28.865Z,22.30
2022-11-16T12:28:28.832Z,24.20
2022-11-16T12:29:28.834Z,17.30
2022-11-16T12:30:28.798Z,21.30
2022-11-16T12:31:50.866Z,19.80
2022-11-16T12:32:28.765Z,21.00
2022-11-16T12:33:28.813Z,22.20
2022-11-16T12:34:28.745Z,23.40
2022-11-16T12:35:28.777Z,20.40
2022-11-16T12:36:28.718Z,22.10
2022-11-16T12:37:28.793Z,18.70
2022-11-16T12:38:28.694Z,19.90
2022-11-16T12:39:28.754Z,19.80
2022-11-16T12:40:28.665Z,20.10
2022-11-16T12:41:28.718Z,21.10
2022-11-16T12:42:28.635Z,23.00
2022-11-16T12:43:28.736Z,22.20
2022-11-16T12:44:28.605Z,23.20
2022-11-16T12:45:32.181Z,22.10
2022-11-16T12:46:28.583Z,18.00
2022-11-16T12:47:28.684Z,18.10
2022-11-16T12:48:28.551Z,20.20
2022-11-16T12:49:28.575Z,18.70
2022-11-16T12:50:28.524Z,19.80
2022-11-16T12:51:31.727Z,16.50
2022-11-16T12:52:28.493Z,16.90